Time;durP1;ratioP1;P1;durP2;ratioP2;P2;SDS_P1;SDS_P2;PMS_P1;PMS_P2;Temp;Humidity;BMP_temperature;BMP_pressure;BME280_temperature;BME280_humidity;BME280_pressure;Samples;Min_cycle;Max_cycle;Signal;HPM_P1;HPM_P2
2021/11/26 00:01:50;;;;;;;51.60;24.00;;;4.20;99.90;;;;;;5057758;28;20462;-68
2021/11/26 00:04:20;;;;;;;41.87;22.27;;;4.20;99.90;;;;;;5057467;28;20526;-68
2021/11/26 00:06:51;;;;;;;50.50;25.13;;;4.20;99.90;;;;;;5056759;28;20510;-69
2021/11/26 00:09:18;;;;;;;58.83;27.77;;;4.20;99.90;;;;;;5057705;28;20971;-68
2021/11/26 00:11:45;;;;;;;52.27;26.60;;;4.10;99.90;;;;;;5057444;28;20761;-68
2021/11/26 00:14:18;;;;;;;58.27;26.87;;;4.10;99.90;;;;;;5057574;28;20462;-68
2021/11/26 00:16:55;;;;;;;54.47;26.00;;;4.00;99.90;;;;;;5056953;28;20469;-68
2021/11/26 00:19:23;;;;;;;52.00;24.90;;;4.00;99.90;;;;;;5057428;28;20463;-68
2021/11/26 00:21:52;;;;;;;52.40;26.17;;;4.00;99.90;;;;;;5056944;28;20525;-68
2021/11/26 00:24:20;;;;;;;57.67;28.53;;;4.00;99.90;;;;;;5057585;28;20465;-68
2021/11/26 00:26:49;;;;;;;62.87;27.10;;;4.00;99.90;;;;;;5057068;28;20824;-68
2021/11/26 00:29:19;;;;;;;56.07;28.10;;;3.90;99.90;;;;;;5056837;28;20552;-68
2021/11/26 00:31:49;;;;;;;62.90;30.07;;;3.90;99.90;;;;;;5057227;28;20561;-68
2021/11/26 00:34:17;;;;;;;51.33;24.63;;;3.90;99.90;;;;;;5057004;28;20548;-68
2021/11/26 00:36:44;;;;;;;53.20;25.47;;;3.90;99.90;;;;;;5057144;28;20473;-68
2021/11/26 00:39:14;;;;;;;47.03;25.90;;;3.90;99.90;;;;;;5056504;28;20452;-68
2021/11/26 00:41:41;;;;;;;53.50;27.03;;;3.90;99.90;;;;;;5057112;28;20477;-68
2021/11/26 00:44:09;;;;;;;54.37;25.60;;;3.90;99.90;;;;;;5056824;28;20905;-68
2021/11/26 00:46:37;;;;;;;52.67;25.97;;;4.00;99.90;;;;;;5057041;28;20771;-68
2021/11/26 00:49:07;;;;;;;49.90;26.93;;;4.00;99.90;;;;;;5055792;28;20564;-68
2021/11/26 00:51:34;;;;;;;58.50;28.50;;;4.00;99.90;;;;;;5056091;28;20509;-68
2021/11/26 00:54:02;;;;;;;52.63;26.93;;;4.00;99.90;;;;;;5056726;28;20860;-68
2021/11/26 00:56:31;;;;;;;52.63;27.23;;;4.00;99.90;;;;;;5056454;28;20466;-68
2021/11/26 00:58:59;;;;;;;50.53;26.83;;;4.00;99.90;;;;;;5055353;28;20569;-68
2021/11/26 01:01:26;;;;;;;57.30;29.83;;;4.00;99.90;;;;;;5056842;28;20506;-68
2021/11/26 01:03:54;;;;;;;58.43;29.03;;;4.10;99.90;;;;;;5056690;28;20917;-68
2021/11/26 01:06:23;;;;;;;51.80;29.80;;;4.10;99.90;;;;;;5056672;28;20835;-68
2021/11/26 01:08:52;;;;;;;57.07;27.37;;;4.20;99.90;;;;;;5056318;28;20509;-68
2021/11/26 01:11:22;;;;;;;58.40;30.37;;;4.10;99.90;;;;;;5057170;28;20869;-68
2021/11/26 01:13:54;;;;;;;53.00;28.63;;;4.20;99.90;;;;;;5056012;28;20922;-68
2021/11/26 01:16:21;;;;;;;64.70;29.50;;;4.20;99.90;;;;;;5056881;28;20458;-68
2021/11/26 01:18:49;;;;;;;60.07;29.93;;;4.10;99.90;;;;;;5056740;28;20943;-68
2021/11/26 01:21:17;;;;;;;56.77;30.90;;;4.10;99.90;;;;;;5056159;28;20553;-68
2021/11/26 01:23:45;;;;;;;64.73;31.70;;;4.20;99.90;;;;;;5055843;28;20481;-68
2021/11/26 01:26:13;;;;;;;62.67;31.83;;;4.10;99.90;;;;;;5056553;28;21005;-69
2021/11/26 01:28:40;;;;;;;62.00;32.40;;;4.20;99.90;;;;;;5056137;28;20564;-69
2021/11/26 01:31:09;;;;;;;69.40;32.30;;;4.10;99.90;;;;;;5056549;28;20477;-69
2021/11/26 01:33:38;;;;;;;57.97;30.47;;;4.10;99.90;;;;;;5056676;28;20836;-67
2021/11/26 01:36:08;;;;;;;68.10;33.27;;;4.10;99.90;;;;;;5056370;28;20477;-67
2021/11/26 01:38:35;;;;;;;62.90;32.60;;;4.20;99.90;;;;;;5056464;28;20524;-67
2021/11/26 01:41:04;;;;;;;64.27;31.60;;;4.10;99.90;;;;;;5056328;28;20552;-63
2021/11/26 01:43:32;;;;;;;61.90;32.20;;;4.20;99.90;;;;;;5056154;28;20901;-59
2021/11/26 01:46:07;;;;;;;67.10;32.73;;;4.20;99.90;;;;;;5056015;28;20505;-64
2021/11/26 01:48:36;;;;;;;60.73;31.90;;;4.20;99.90;;;;;;5056518;28;20462;-65
2021/11/26 01:51:04;;;;;;;65.67;35.00;;;4.20;99.90;;;;;;5056712;28;20469;-65
2021/11/26 01:53:32;;;;;;;66.30;31.27;;;4.20;99.90;;;;;;5055718;28;20498;-65
2021/11/26 01:56:00;;;;;;;61.47;31.10;;;4.20;99.90;;;;;;5056509;28;20468;-67
2021/11/26 01:58:27;;;;;;;71.07;32.90;;;4.20;99.90;;;;;;5057039;28;20470;-67
2021/11/26 02:00:59;;;;;;;67.97;33.90;;;4.20;99.90;;;;;;5056408;28;20540;-67
2021/11/26 02:03:30;;;;;;;63.90;33.83;;;4.20;99.90;;;;;;5055192;28;20482;-67
2021/11/26 02:06:01;;;;;;;73.90;34.77;;;4.20;99.90;;;;;;5055950;28;20490;-66
2021/11/26 02:08:29;;;;;;;64.20;32.97;;;4.10;99.90;;;;;;5056722;28;20458;-66
2021/11/26 02:10:56;;;;;;;66.27;32.27;;;4.10;99.90;;;;;;5058279;28;20501;-66
2021/11/26 02:13:23;;;;;;;64.67;30.17;;;4.10;99.90;;;;;;5059754;28;20548;-66
2021/11/26 02:15:55;;;;;;;62.13;29.03;;;4.10;99.90;;;;;;5059293;28;20557;-67
2021/11/26 02:18:23;;;;;;;61.30;29.07;;;4.10;99.90;;;;;;5059543;28;20486;-67
2021/11/26 02:20:52;;;;;;;56.53;27.23;;;4.10;99.90;;;;;;5060416;28;20465;-67
2021/11/26 02:23:19;;;;;;;56.10;27.87;;;4.10;99.90;;;;;;5060102;28;20549;-67
2021/11/26 02:25:50;;;;;;;57.83;26.83;;;4.10;99.90;;;;;;5059517;28;20466;-67
2021/11/26 02:28:19;;;;;;;43.13;24.73;;;4.20;99.90;;;;;;5059070;28;20846;-67
2021/11/26 02:30:47;;;;;;;45.17;24.70;;;4.20;99.90;;;;;;5059532;28;20466;-67
2021/11/26 02:33:17;;;;;;;40.33;24.60;;;4.20;99.90;;;;;;5059589;28;20572;-67
2021/11/26 02:35:47;;;;;;;43.23;22.77;;;4.20;99.90;;;;;;5059651;28;20464;-67
2021/11/26 02:38:16;;;;;;;39.80;22.60;;;4.20;99.90;;;;;;5059067;28;20470;-67
2021/11/26 02:40:52;;;;;;;44.43;24.20;;;4.20;99.90;;;;;;5059260;28;20466;-67
2021/11/26 02:43:20;;;;;;;48.43;25.90;;;4.20;99.90;;;;;;5059973;28;20819;-67
2021/11/26 02:45:51;;;;;;;45.63;25.83;;;4.20;99.90;;;;;;5059278;28;20494;-68
2021/11/26 02:48:18;;;;;;;48.13;28.03;;;4.30;99.90;;;;;;5059530;28;20846;-67
2021/11/26 02:50:47;;;;;;;47.73;27.17;;;4.20;99.90;;;;;;5059770;28;20461;-67
2021/11/26 02:53:17;;;;;;;45.77;27.50;;;4.20;99.90;;;;;;5058853;28;20560;-67
2021/11/26 02:55:44;;;;;;;53.10;28.23;;;4.20;99.90;;;;;;5046619;28;20462;-67
2021/11/26 02:58:15;;;;;;;52.47;29.07;;;4.20;99.90;;;;;;5058838;28;20524;-67
2021/11/26 03:00:46;;;;;;;52.43;28.83;;;4.30;99.90;;;;;;5058922;28;20458;-67
2021/11/26 03:03:13;;;;;;;50.27;28.67;;;4.30;99.90;;;;;;5058766;28;20569;-67
2021/11/26 03:05:41;;;;;;;57.93;31.83;;;4.30;99.90;;;;;;5058099;28;20475;-67
2021/11/26 03:08:09;;;;;;;47.67;30.47;;;4.30;99.90;;;;;;5058330;28;20822;-67
2021/11/26 03:10:38;;;;;;;51.00;28.10;;;4.30;99.90;;;;;;5058823;28;20501;-67
2021/11/26 03:13:08;;;;;;;54.27;33.07;;;4.40;99.90;;;;;;5058901;28;20490;-67
2021/11/26 03:15:43;;;;;;;56.40;32.40;;;4.40;99.90;;;;;;5058027;28;20470;-67
2021/11/26 03:18:14;;;;;;;55.13;29.50;;;4.40;99.90;;;;;;5058902;28;20455;-66
2021/11/26 03:20:41;;;;;;;56.87;31.10;;;4.40;99.90;;;;;;5058717;28;20502;-66
2021/11/26 03:23:09;;;;;;;59.33;31.23;;;4.30;99.90;;;;;;5058533;28;20831;-67
2021/11/26 03:25:40;;;;;;;50.63;29.40;;;4.30;99.90;;;;;;5057664;28;20465;-67
2021/11/26 03:28:08;;;;;;;51.50;30.93;;;4.40;99.90;;;;;;5058579;28;20501;-67
2021/11/26 03:30:35;;;;;;;51.23;30.37;;;4.40;99.90;;;;;;5058181;28;20911;-67
2021/11/26 03:33:03;;;;;;;48.80;28.40;;;4.40;99.90;;;;;;5058720;28;20923;-67
2021/11/26 03:35:31;;;;;;;53.20;30.80;;;4.40;99.90;;;;;;5057785;28;20549;-67
2021/11/26 03:37:59;;;;;;;45.27;29.57;;;4.40;99.90;;;;;;5057351;28;20470;-67
2021/11/26 03:40:27;;;;;;;50.03;29.37;;;4.40;99.90;;;;;;5057707;28;20470;-67
2021/11/26 03:42:57;;;;;;;58.23;28.63;;;4.40;99.90;;;;;;5058375;28;20593;-67
2021/11/26 03:45:27;;;;;;;48.27;28.30;;;4.50;99.90;;;;;;5058017;28;20469;-66
2021/11/26 03:47:54;;;;;;;50.50;28.97;;;4.40;99.90;;;;;;5057017;28;20924;-67
2021/11/26 03:50:23;;;;;;;49.00;30.10;;;4.50;99.90;;;;;;5057669;28;20477;-66
2021/11/26 03:52:51;;;;;;;46.47;29.03;;;4.40;99.90;;;;;;5058489;28;20873;-66
2021/11/26 03:55:21;;;;;;;52.80;29.03;;;4.40;99.90;;;;;;5058043;28;20550;-66
2021/11/26 03:57:50;;;;;;;54.10;30.77;;;4.40;99.90;;;;;;5057353;28;20462;-66
2021/11/26 04:00:21;;;;;;;45.17;29.83;;;4.40;99.90;;;;;;5057774;28;20466;-66
2021/11/26 04:02:48;;;;;;;55.80;30.70;;;4.40;99.90;;;;;;5057607;28;20463;-66
2021/11/26 04:05:18;;;;;;;50.80;30.70;;;4.40;99.90;;;;;;5058068;28;20462;-66
2021/11/26 04:07:46;;;;;;;53.77;32.50;;;4.40;99.90;;;;;;5057645;28;20540;-65
2021/11/26 04:10:14;;;;;;;50.63;31.30;;;4.40;99.90;;;;;;5057415;28;20474;-67
2021/11/26 04:12:42;;;;;;;60.77;30.80;;;4.30;99.90;;;;;;5057612;28;20519;-67
2021/11/26 04:15:14;;;;;;;50.33;30.70;;;4.30;99.90;;;;;;5057597;28;20561;-68
2021/11/26 04:17:46;;;;;;;44.80;25.80;;;4.30;99.90;;;;;;5057628;28;20458;-67
2021/11/26 04:20:14;;;;;;;38.77;25.30;;;4.20;99.90;;;;;;5056635;28;20539;-66
2021/11/26 04:22:41;;;;;;;45.33;28.47;;;4.20;99.90;;;;;;5057199;28;20466;-67
2021/11/26 04:25:12;;;;;;;48.60;29.30;;;4.20;99.90;;;;;;5057390;28;20462;-67
2021/11/26 04:27:40;;;;;;;42.27;27.93;;;4.20;99.90;;;;;;5057031;28;20502;-67
2021/11/26 04:30:14;;;;;;;44.90;28.70;;;4.20;99.90;;;;;;5056569;28;20467;-67
2021/11/26 04:32:42;;;;;;;47.27;30.77;;;4.20;99.90;;;;;;5057369;28;20963;-68
2021/11/26 04:35:14;;;;;;;45.90;29.40;;;4.20;99.90;;;;;;5057260;28;20545;-68
2021/11/26 04:37:41;;;;;;;44.20;28.57;;;4.20;99.90;;;;;;5057109;28;20469;-68
2021/11/26 04:40:11;;;;;;;43.03;26.43;;;4.20;99.90;;;;;;5055989;28;20462;-67
2021/11/26 04:42:39;;;;;;;48.70;31.80;;;4.20;99.90;;;;;;5056305;28;20469;-67
2021/11/26 04:45:08;;;;;;;45.07;28.53;;;4.20;99.90;;;;;;5056931;28;20468;-67
2021/11/26 04:47:35;;;;;;;41.53;30.27;;;4.10;99.90;;;;;;5056882;28;20541;-67
2021/11/26 04:50:05;;;;;;;44.83;27.30;;;4.10;99.90;;;;;;5056874;28;20544;-67
2021/11/26 04:52:35;;;;;;;52.50;29.17;;;4.10;99.90;;;;;;5054658;28;20576;-67
2021/11/26 04:55:02;;;;;;;42.03;29.13;;;4.10;99.90;;;;;;5054283;28;20469;-67
2021/11/26 04:57:30;;;;;;;39.43;27.20;;;4.10;99.90;;;;;;5055258;28;20459;-67
2021/11/26 04:59:57;;;;;;;44.00;27.30;;;4.00;99.90;;;;;;5055878;28;20466;-66
2021/11/26 05:02:26;;;;;;;46.90;28.10;;;4.00;99.90;;;;;;5055440;28;20445;-65
2021/11/26 05:04:56;;;;;;;46.70;27.63;;;4.10;99.90;;;;;;5056355;28;20486;-65
2021/11/26 05:07:25;;;;;;;43.20;28.03;;;4.00;99.90;;;;;;5057087;28;20835;-65
2021/11/26 05:09:52;;;;;;;45.23;28.50;;;4.00;99.90;;;;;;5056825;28;20513;-66
2021/11/26 05:12:28;;;;;;;39.30;26.53;;;4.00;99.90;;;;;;5055917;28;20467;-66
2021/11/26 05:14:55;;;;;;;39.97;26.50;;;4.00;99.90;;;;;;5057364;28;20472;-66
2021/11/26 05:17:23;;;;;;;33.83;23.40;;;4.00;99.90;;;;;;5056163;28;20844;-66
2021/11/26 05:19:50;;;;;;;32.73;24.90;;;4.00;99.90;;;;;;5056876;28;20800;-66
2021/11/26 05:22:17;;;;;;;36.77;22.87;;;4.00;99.90;;;;;;5056202;28;20461;-66
2021/11/26 05:24:46;;;;;;;32.77;21.73;;;4.00;99.90;;;;;;5056038;28;20560;-66
2021/11/26 05:27:13;;;;;;;33.40;22.30;;;4.00;99.90;;;;;;5056599;28;20437;-66
2021/11/26 05:29:41;;;;;;;28.77;19.73;;;4.00;99.90;;;;;;5056671;28;20822;-66
2021/11/26 05:32:11;;;;;;;26.47;18.60;;;3.90;99.90;;;;;;5056413;28;20877;-66
2021/11/26 05:34:39;;;;;;;25.70;21.47;;;3.90;99.90;;;;;;5056290;28;20474;-66
2021/11/26 05:37:08;;;;;;;26.13;19.37;;;3.90;99.90;;;;;;5056379;28;20478;-66
2021/11/26 05:39:37;;;;;;;22.63;16.60;;;3.90;99.90;;;;;;5056326;28;20504;-67
2021/11/26 05:42:06;;;;;;;20.97;16.33;;;3.90;99.90;;;;;;5056419;28;20519;-67
2021/11/26 05:44:33;;;;;;;23.57;16.90;;;3.90;99.90;;;;;;5055444;28;20858;-67
2021/11/26 05:47:01;;;;;;;22.90;16.10;;;3.90;99.90;;;;;;5059912;28;20542;-67
2021/11/26 05:49:28;;;;;;;17.27;13.60;;;4.00;99.90;;;;;;5059882;28;20500;-66
2021/11/26 05:51:55;;;;;;;18.00;13.67;;;3.90;99.90;;;;;;5060234;28;20465;-66
2021/11/26 05:54:22;;;;;;;19.77;13.10;;;3.90;99.90;;;;;;5060222;28;20881;-66
2021/11/26 05:56:50;;;;;;;16.33;12.97;;;3.80;99.90;;;;;;5059971;28;20527;-66
2021/11/26 05:59:19;;;;;;;18.30;12.40;;;3.80;99.90;;;;;;5060880;28;20544;-66
2021/11/26 06:01:46;;;;;;;15.37;11.57;;;3.70;99.90;;;;;;5060756;28;20560;-66
2021/11/26 06:04:15;;;;;;;13.57;10.77;;;3.80;99.90;;;;;;5060120;28;20936;-66
2021/11/26 06:06:42;;;;;;;14.23;11.37;;;3.80;99.90;;;;;;5059496;28;20498;-67
2021/11/26 06:09:12;;;;;;;14.80;11.37;;;3.80;99.90;;;;;;5059740;28;20490;-67
2021/11/26 06:11:40;;;;;;;11.47;10.20;;;3.70;99.90;;;;;;5059147;28;20516;-66
2021/11/26 06:14:07;;;;;;;11.93;10.40;;;3.70;99.90;;;;;;5059591;28;20437;-66
2021/11/26 06:16:36;;;;;;;11.77;10.30;;;3.80;99.90;;;;;;5059346;28;20563;-66
2021/11/26 06:19:03;;;;;;;10.63;9.53;;;3.90;99.90;;;;;;5059303;28;20481;-67
2021/11/26 06:21:37;;;;;;;10.27;8.90;;;3.80;99.90;;;;;;5058685;28;20526;-67
2021/11/26 06:24:06;;;;;;;12.10;8.90;;;3.80;99.90;;;;;;5069910;28;20903;-67
2021/11/26 06:26:37;;;;;;;11.40;9.30;;;3.70;99.90;;;;;;5069235;28;20462;-67
2021/11/26 06:29:04;;;;;;;13.63;10.00;;;3.80;99.90;;;;;;5064019;28;20561;-66
2021/11/26 06:31:31;;;;;;;12.43;9.37;;;3.80;99.90;;;;;;5070528;28;20519;-66
2021/11/26 06:34:04;;;;;;;10.07;9.07;;;3.80;99.90;;;;;;5068032;28;21436;-65
2021/11/26 06:36:32;;;;;;;10.90;9.03;;;3.70;99.90;;;;;;5063803;28;20553;-65
2021/11/26 06:39:00;;;;;;;10.53;9.00;;;3.70;99.90;;;;;;5074419;28;20515;-65
2021/11/26 06:41:30;;;;;;;8.70;7.47;;;3.70;99.90;;;;;;5064330;28;20814;-65
2021/11/26 06:43:57;;;;;;;9.87;8.43;;;3.70;99.90;;;;;;5059616;28;20509;-64
2021/11/26 06:46:26;;;;;;;14.23;8.40;;;3.80;99.90;;;;;;5060481;28;20936;-63
2021/11/26 06:48:54;;;;;;;9.00;6.90;;;3.80;99.90;;;;;;5059295;28;20532;-63
2021/11/26 06:51:22;;;;;;;11.33;8.27;;;3.70;99.90;;;;;;5058531;28;20486;-63
2021/11/26 06:53:50;;;;;;;9.27;7.80;;;3.70;99.90;;;;;;5059571;28;20557;-63
2021/11/26 06:56:17;;;;;;;10.50;8.20;;;3.60;99.90;;;;;;5059324;28;20469;-63
2021/11/26 06:58:44;;;;;;;16.20;11.80;;;3.60;99.90;;;;;;5060485;28;20796;-63
2021/11/26 07:01:12;;;;;;;9.47;8.40;;;3.60;99.90;;;;;;5058350;28;20549;-63
2021/11/26 07:03:40;;;;;;;8.33;7.00;;;3.60;99.90;;;;;;5058119;28;20567;-63
2021/11/26 07:06:08;;;;;;;10.10;7.57;;;3.70;99.90;;;;;;5059142;28;20537;-63
2021/11/26 07:08:41;;;;;;;8.63;7.50;;;3.60;99.90;;;;;;5060469;28;20489;-63
2021/11/26 07:11:08;;;;;;;9.13;7.23;;;3.60;99.90;;;;;;5059372;28;20915;-63
2021/11/26 07:13:36;;;;;;;9.80;8.10;;;3.60;99.90;;;;;;5058317;28;20494;-63
2021/11/26 07:16:03;;;;;;;8.57;7.50;;;3.60;99.90;;;;;;5059345;28;20542;-63
2021/11/26 07:18:31;;;;;;;9.33;8.30;;;3.60;99.90;;;;;;5059851;28;20482;-63
2021/11/26 07:20:58;;;;;;;9.47;8.47;;;3.70;99.90;;;;;;5059588;28;20458;-63
2021/11/26 07:23:26;;;;;;;13.60;10.47;;;3.60;99.90;;;;;;5058846;28;20473;-63
2021/11/26 07:25:55;;;;;;;11.13;9.17;;;3.70;99.90;;;;;;5059303;28;20437;-63
2021/11/26 07:28:24;;;;;;;10.90;8.47;;;3.60;99.90;;;;;;5060103;28;20577;-64
2021/11/26 07:30:55;;;;;;;11.27;9.20;;;3.70;99.90;;;;;;5060633;28;20466;-63
2021/11/26 07:33:25;;;;;;;9.20;7.80;;;3.70;99.90;;;;;;5059661;28;20564;-63
2021/11/26 07:35:55;;;;;;;10.40;9.30;;;3.70;99.90;;;;;;5059572;28;20486;-63
2021/11/26 07:38:23;;;;;;;15.43;9.27;;;3.70;99.90;;;;;;5060334;28;20494;-63
2021/11/26 07:40:56;;;;;;;15.80;10.40;;;3.70;99.90;;;;;;5060628;28;20514;-63
2021/11/26 07:43:24;;;;;;;12.20;9.60;;;3.70;99.90;;;;;;5058731;28;20462;-64
2021/11/26 07:45:51;;;;;;;15.23;9.30;;;3.80;99.90;;;;;;5059925;28;20482;-64
2021/11/26 07:48:19;;;;;;;10.90;9.70;;;3.70;99.90;;;;;;5059848;28;20482;-63
2021/11/26 07:50:47;;;;;;;10.40;9.30;;;3.70;99.90;;;;;;5059973;28;20860;-63
2021/11/26 07:53:14;;;;;;;14.53;11.33;;;3.70;99.90;;;;;;5058991;28;20821;-63
2021/11/26 07:55:43;;;;;;;11.20;9.03;;;3.70;99.90;;;;;;5059428;28;20850;-63
2021/11/26 07:58:17;;;;;;;11.90;8.30;;;3.70;99.90;;;;;;5059797;28;20940;-63
2021/11/26 08:00:45;;;;;;;10.73;8.80;;;3.70;99.90;;;;;;5059603;28;20525;-63
2021/11/26 08:03:15;;;;;;;9.20;8.20;;;3.70;99.90;;;;;;5057584;28;20491;-63
2021/11/26 08:05:42;;;;;;;13.17;9.20;;;3.70;99.90;;;;;;5047577;28;20469;-63
2021/11/26 08:08:10;;;;;;;12.97;8.50;;;3.70;99.90;;;;;;5058527;28;20517;-63
2021/11/26 08:10:42;;;;;;;10.23;9.13;;;3.70;99.90;;;;;;5059249;28;20461;-63
2021/11/26 08:13:14;;;;;;;11.30;9.33;;;3.70;99.90;;;;;;5059702;28;20852;-63
2021/11/26 08:15:41;;;;;;;14.80;11.57;;;3.80;99.90;;;;;;5058602;28;20459;-64
2021/11/26 08:18:13;;;;;;;8.57;7.67;;;3.90;99.90;;;;;;5058862;28;20512;-63
2021/11/26 08:20:42;;;;;;;10.03;8.80;;;3.90;99.90;;;;;;5045437;28;20977;-63
2021/11/26 08:23:10;;;;;;;9.03;8.13;;;3.90;99.90;;;;;;5058807;28;20481;-64
2021/11/26 08:25:38;;;;;;;9.67;8.67;;;3.90;99.90;;;;;;5058510;28;20549;-64
2021/11/26 08:28:07;;;;;;;10.73;8.07;;;3.90;99.90;;;;;;5057662;28;20926;-63
2021/11/26 08:30:35;;;;;;;13.23;8.07;;;3.80;99.90;;;;;;5058385;28;20494;-63
2021/11/26 08:33:03;;;;;;;9.27;8.30;;;3.80;99.90;;;;;;5058224;28;20517;-64
2021/11/26 08:35:33;;;;;;;10.27;9.17;;;3.80;99.90;;;;;;5057659;28;20466;-64
2021/11/26 08:38:04;;;;;;;11.90;8.80;;;3.80;99.90;;;;;;5056443;28;20552;-64
2021/11/26 08:40:35;;;;;;;14.13;8.70;;;3.90;99.90;;;;;;5057937;28;20470;-64
2021/11/26 08:43:02;;;;;;;12.30;9.17;;;3.90;99.90;;;;;;5057380;28;20479;-64
2021/11/26 08:45:33;;;;;;;9.93;8.67;;;3.90;99.90;;;;;;5056023;28;20459;-64
2021/11/26 08:48:02;;;;;;;12.57;9.53;;;3.90;99.90;;;;;;5057542;28;20473;-64
2021/11/26 08:50:29;;;;;;;13.97;10.00;;;3.90;99.90;;;;;;5058275;28;20521;-63
2021/11/26 08:52:57;;;;;;;16.63;11.07;;;3.90;99.90;;;;;;5057553;28;20501;-63
2021/11/26 08:55:24;;;;;;;19.17;12.70;;;3.90;99.90;;;;;;5057651;28;20876;-63
2021/11/26 08:57:55;;;;;;;16.80;12.43;;;3.90;99.90;;;;;;5057228;28;20466;-63
2021/11/26 09:00:25;;;;;;;17.13;13.37;;;4.00;99.90;;;;;;5056908;28;20466;-63
2021/11/26 09:02:54;;;;;;;21.63;14.00;;;3.90;99.90;;;;;;5057171;28;20529;-63
2021/11/26 09:05:24;;;;;;;21.23;14.30;;;3.90;99.90;;;;;;5047992;28;20470;-63
2021/11/26 09:07:59;;;;;;;25.93;16.33;;;4.00;99.90;;;;;;5057019;28;20462;-63
2021/11/26 09:10:30;;;;;;;29.40;17.50;;;4.00;99.90;;;;;;5056657;28;20550;-63
2021/11/26 09:12:59;;;;;;;24.77;16.60;;;4.00;99.90;;;;;;5056998;28;20534;-63
2021/11/26 09:15:27;;;;;;;24.43;16.37;;;4.00;99.90;;;;;;5057744;28;20497;-63
2021/11/26 09:17:55;;;;;;;32.60;16.77;;;4.00;99.90;;;;;;5058224;28;20463;-63
2021/11/26 09:20:23;;;;;;;19.57;14.53;;;4.10;99.90;;;;;;5060003;28;20568;-62
2021/11/26 09:22:51;;;;;;;21.23;15.50;;;4.10;99.90;;;;;;5062086;28;20493;-62
2021/11/26 09:25:19;;;;;;;26.03;14.33;;;4.10;99.90;;;;;;5061906;28;20462;-62
2021/11/26 09:27:48;;;;;;;26.20;15.30;;;4.20;99.90;;;;;;5061545;28;20436;-62
2021/11/26 09:30:19;;;;;;;24.77;14.87;;;4.10;99.90;;;;;;5060946;28;20962;-62
2021/11/26 09:32:47;;;;;;;28.43;14.40;;;4.20;99.90;;;;;;5061271;28;20846;-62
2021/11/26 09:35:16;;;;;;;21.83;13.60;;;4.20;99.90;;;;;;5060344;28;20493;-62
2021/11/26 09:37:47;;;;;;;21.87;12.10;;;4.20;99.90;;;;;;5061145;28;20457;-62
2021/11/26 09:40:16;;;;;;;22.23;11.40;;;4.10;99.90;;;;;;5061262;28;20461;-62
2021/11/26 09:42:44;;;;;;;18.00;10.17;;;4.10;99.90;;;;;;5060339;28;20501;-63
2021/11/26 09:45:21;;;;;;;28.67;12.00;;;4.20;99.90;;;;;;5060303;28;20824;-62
2021/11/26 09:47:50;;;;;;;20.10;9.80;;;4.20;99.90;;;;;;5060465;28;20500;-62
2021/11/26 09:50:20;;;;;;;19.07;10.13;;;4.20;99.90;;;;;;5060768;28;20795;-62
2021/11/26 09:52:50;;;;;;;29.37;10.10;;;4.30;99.90;;;;;;5059929;28;20494;-62
2021/11/26 09:55:19;;;;;;;21.70;9.70;;;4.40;99.90;;;;;;5059933;28;20540;-62
2021/11/26 09:57:49;;;;;;;19.40;9.83;;;4.40;99.90;;;;;;5059179;28;20462;-62
2021/11/26 10:00:18;;;;;;;14.83;9.50;;;4.50;99.90;;;;;;5059058;28;20545;-62
2021/11/26 10:02:54;;;;;;;17.40;9.27;;;4.60;99.90;;;;;;5055906;28;20745;-62
2021/11/26 10:05:25;;;;;;;16.83;9.20;;;4.40;99.90;;;;;;5055598;28;20497;-62
2021/11/26 10:07:56;;;;;;;12.87;9.00;;;4.50;99.90;;;;;;5059909;28;20459;-63
2021/11/26 10:10:28;;;;;;;15.77;9.00;;;4.40;99.90;;;;;;5060469;28;20501;-62
2021/11/26 10:13:00;;;;;;;17.90;9.90;;;4.20;99.90;;;;;;5059911;28;20454;-62
2021/11/26 10:15:40;;;;;;;27.47;10.93;;;4.20;99.90;;;;;;5058768;28;20557;-62
2021/11/26 10:18:13;;;;;;;19.60;11.87;;;4.20;99.90;;;;;;5060614;28;20931;-62
2021/11/26 10:20:54;;;;;;;18.37;10.90;;;4.10;99.90;;;;;;5059682;28;20490;-62
2021/11/26 10:23:25;;;;;;;23.80;11.90;;;4.10;99.90;;;;;;5059453;28;20466;-62
2021/11/26 10:25:52;;;;;;;22.50;12.10;;;4.30;96.70;;;;;;5059589;28;20533;-62
2021/11/26 10:28:26;;;;;;;16.63;11.00;;;4.30;1.00;;;;;;5059001;28;20760;-62
2021/11/26 10:30:55;;;;;;;19.77;10.27;;;4.30;99.90;;;;;;5058623;28;20567;-62
2021/11/26 10:33:30;;;;;;;18.33;10.10;;;4.30;1.00;;;;;;5059330;28;20548;-62
2021/11/26 10:36:01;;;;;;;14.77;9.43;;;4.30;1.00;;;;;;5059377;28;20817;-62
2021/11/26 10:38:34;;;;;;;15.60;9.60;;;4.20;99.90;;;;;;5059053;28;20569;-62
2021/11/26 10:41:05;;;;;;;18.90;10.10;;;4.30;99.90;;;;;;5059736;28;20486;-62
2021/11/26 10:43:49;;;;;;;21.90;10.80;;;4.30;99.90;;;;;;5059789;28;20797;-62
2021/11/26 10:46:42;;;;;;;18.07;11.23;;;4.30;99.90;;;;;;5059347;28;20888;-62
2021/11/26 10:49:38;;;;;;;18.63;10.63;;;4.30;99.90;;;;;;5059687;28;20843;-62
2021/11/26 10:58:02;;;;;;;18.23;11.13;;;4.40;99.90;;;;;;5059009;28;20446;-62
2021/11/26 11:00:33;;;;;;;16.07;11.30;;;4.30;99.90;;;;;;5059130;28;20462;-62
2021/11/26 11:03:03;;;;;;;26.60;11.33;;;4.30;99.90;;;;;;5057997;28;20500;-62
2021/11/26 11:05:37;;;;;;;22.13;11.23;;;4.30;99.90;;;;;;5058969;28;20466;-62
2021/11/26 11:08:17;;;;;;;17.17;11.13;;;4.30;99.90;;;;;;5058434;28;20461;-62
2021/11/26 11:10:46;;;;;;;21.37;12.30;;;4.30;99.90;;;;;;5059135;28;20522;-63
2021/11/26 11:13:17;;;;;;;18.67;11.50;;;4.40;99.90;;;;;;5058675;28;20494;-62
2021/11/26 11:15:51;;;;;;;18.30;11.20;;;4.40;99.90;;;;;;5055239;28;20877;-62
2021/11/26 11:18:18;;;;;;;18.10;12.37;;;4.40;99.90;;;;;;5057593;28;20561;-63
2021/11/26 11:20:47;;;;;;;27.47;13.80;;;4.50;99.90;;;;;;5059466;28;20493;-63
2021/11/26 11:23:17;;;;;;;15.73;10.97;;;4.40;99.90;;;;;;5058709;28;20509;-62
2021/11/26 11:25:52;;;;;;;19.87;13.27;;;4.50;99.90;;;;;;5058751;28;20565;-62
2021/11/26 11:28:19;;;;;;;21.77;12.03;;;4.50;99.90;;;;;;5056976;28;20494;-63
2021/11/26 11:30:52;;;;;;;17.10;10.90;;;4.60;99.90;;;;;;5057927;28;20552;-63
2021/11/26 11:33:21;;;;;;;19.97;12.53;;;4.60;99.90;;;;;;5058192;28;20509;-63
2021/11/26 11:35:50;;;;;;;20.03;11.67;;;4.60;99.90;;;;;;5058888;28;20557;-63
2021/11/26 11:38:19;;;;;;;15.33;11.27;;;4.70;99.90;;;;;;5058181;28;20462;-63
2021/11/26 11:40:58;;;;;;;16.80;11.23;;;4.70;99.90;;;;;;5057354;28;20843;-63
2021/11/26 11:43:26;;;;;;;16.30;11.30;;;4.70;99.90;;;;;;5055828;28;20523;-63
2021/11/26 11:46:00;;;;;;;21.40;10.67;;;4.80;99.90;;;;;;5057824;28;20921;-63
2021/11/26 11:48:30;;;;;;;17.73;10.67;;;4.70;99.90;;;;;;5058635;28;20455;-63
2021/11/26 11:50:58;;;;;;;16.77;9.03;;;4.60;99.90;;;;;;5057433;28;20536;-63
2021/11/26 11:53:37;;;;;;;15.37;9.03;;;4.50;93.40;;;;;;5058151;28;20508;-63
2021/11/26 11:56:12;;;;;;;19.10;9.17;;;4.50;61.40;;;;;;5058494;28;20466;-63
2021/11/26 11:58:48;;;;;;;16.63;8.30;;;4.40;18.60;;;;;;5058637;28;20475;-63
2021/11/26 12:01:22;;;;;;;15.10;8.60;;;4.40;24.10;;;;;;5057587;28;20458;-63
2021/11/26 12:03:51;;;;;;;15.87;7.90;;;4.40;90.10;;;;;;5058609;28;20497;-63
2021/11/26 12:06:19;;;;;;;13.10;7.50;;;4.40;1.00;;;;;;5065411;28;20465;-63
2021/11/26 12:08:52;;;;;;;12.43;7.93;;;4.40;1.00;;;;;;5065524;28;20458;-63
2021/11/26 12:11:32;;;;;;;15.33;7.60;;;4.50;1.00;;;;;;5067829;28;20489;-63
2021/11/26 12:14:05;;;;;;;12.30;7.20;;;4.60;1.00;;;;;;5065441;28;20931;-63
2021/11/26 12:16:47;;;;;;;12.70;9.10;;;4.60;1.00;;;;;;5063154;28;20515;-63
2021/11/26 12:19:20;;;;;;;11.37;7.13;;;4.70;1.00;;;;;;5063398;28;20469;-63
2021/11/26 12:21:49;;;;;;;9.77;6.23;;;4.70;1.00;;;;;;5066805;28;20455;-64
2021/11/26 12:24:22;;;;;;;13.53;6.60;;;4.70;1.00;;;;;;5065424;28;20466;-64
2021/11/26 12:26:54;;;;;;;12.57;6.10;;;4.80;1.00;;;;;;5062989;28;20781;-64
2021/11/26 12:29:34;;;;;;;14.20;6.70;;;4.90;1.00;;;;;;5065175;28;20556;-64
2021/11/26 12:32:17;;;;;;;14.53;6.17;;;5.00;1.00;;;;;;5064831;28;20546;-63
2021/11/26 12:34:50;;;;;;;9.00;6.13;;;4.90;1.00;;;;;;5064319;28;20465;-64
2021/11/26 12:37:21;;;;;;;9.40;6.40;;;4.90;1.00;;;;;;5064131;28;20428;-63
2021/11/26 12:39:49;;;;;;;12.73;6.70;;;4.80;1.00;;;;;;5067106;28;20449;-63
2021/11/26 12:42:19;;;;;;;13.33;6.13;;;5.00;1.00;;;;;;5066486;28;20540;-63
2021/11/26 12:44:57;;;;;;;12.67;5.40;;;5.30;1.00;;;;;;5064688;28;20463;-64
2021/11/26 12:47:37;;;;;;;8.27;4.70;;;5.40;1.00;;;;;;5065095;28;20453;-64
2021/11/26 12:52:55;;;;;;;12.57;4.87;;;5.30;1.00;;;;;;5056560;28;20870;-63
2021/11/26 12:55:22;;;;;;;8.53;4.00;;;5.20;1.00;;;;;;5054704;28;20501;-64
2021/11/26 12:57:55;;;;;;;6.13;5.00;;;5.10;1.00;;;;;;5055680;28;20478;-63
2021/11/26 13:00:23;;;;;;;7.80;4.70;;;5.10;1.00;;;;;;5055092;28;20462;-64
2021/11/26 13:02:51;;;;;;;5.30;4.53;;;5.10;1.00;;;;;;5056445;28;20855;-64